Time;durP1;ratioP1;P1;durP2;ratioP2;P2;SDS_P1;SDS_P2;PMS_P1;PMS_P2;Temp;Humidity;BMP_temperature;BMP_pressure;BME280_temperature;BME280_humidity;BME280_pressure;Samples;Min_cycle;Max_cycle;Signal;HPM_P1;HPM_P2
2023/06/09 00:00:17;;;;;;;9.10;5.00;;;;;;;19.95;63.17;99051.70;108190;1305;22254;-42
2023/06/09 00:02:50;;;;;;;7.80;5.20;;;;;;;19.92;63.32;99049.70;108189;1305;22440;-42
2023/06/09 00:05:17;;;;;;;7.50;5.00;;;;;;;19.91;63.18;99047.16;108173;1305;22202;-44
2023/06/09 00:07:43;;;;;;;7.60;5.20;;;;;;;19.91;63.04;99047.85;108191;1305;22449;-42
2023/06/09 00:10:08;;;;;;;8.00;5.40;;;;;;;19.91;63.21;99049.96;108187;1305;22205;-45
2023/06/09 00:12:34;;;;;;;7.10;5.30;;;;;;;19.91;63.23;99052.41;108184;1305;23120;-42
2023/06/09 00:14:59;;;;;;;8.30;5.70;;;;;;;19.90;63.63;99053.02;108184;1305;22393;-42
2023/06/09 00:17:25;;;;;;;6.90;4.60;;;;;;;19.89;63.56;99055.17;108032;1305;22913;-42
2023/06/09 00:19:52;;;;;;;6.50;5.40;;;;;;;19.87;63.39;99057.14;108175;1305;23108;-44
2023/06/09 00:22:19;;;;;;;5.60;5.10;;;;;;;19.84;64.17;99056.66;108161;1305;23173;-42
2023/06/09 00:24:46;;;;;;;8.60;5.20;;;;;;;19.81;64.27;99059.84;108182;1305;22598;-43
2023/06/09 00:27:12;;;;;;;8.40;5.70;;;;;;;19.79;64.32;99053.15;108195;1305;22460;-43
2023/06/09 00:29:37;;;;;;;9.00;5.40;;;;;;;19.76;64.30;99056.42;108192;1305;22217;-43
2023/06/09 00:32:04;;;;;;;11.20;5.50;;;;;;;19.73;64.59;99055.46;108182;1305;22428;-42
2023/06/09 00:34:29;;;;;;;10.40;5.50;;;;;;;19.72;64.92;99055.16;108193;1305;22224;-45
2023/06/09 00:36:54;;;;;;;7.70;5.10;;;;;;;19.70;65.08;99054.27;107668;1305;22949;-42
2023/06/09 00:39:20;;;;;;;6.30;5.00;;;;;;;19.68;64.73;99055.53;108181;1306;22252;-45
2023/06/09 00:41:45;;;;;;;9.90;4.80;;;;;;;19.65;65.34;99055.84;108189;1305;22215;-42
2023/06/09 00:44:12;;;;;;;7.20;4.80;;;;;;;19.64;65.45;99057.59;108153;1305;24389;-42
2023/06/09 00:46:37;;;;;;;7.60;5.70;;;;;;;19.62;66.09;99053.09;108181;1305;22213;-43
2023/06/09 00:49:04;;;;;;;13.30;5.70;;;;;;;19.61;66.03;99053.22;108209;1305;22251;-44
2023/06/09 00:51:32;;;;;;;8.20;5.40;;;;;;;19.59;65.80;99052.50;108186;1305;22866;-43
2023/06/09 00:53:58;;;;;;;8.30;5.10;;;;;;;19.59;66.13;99052.20;108155;1305;22297;-44
2023/06/09 00:56:24;;;;;;;7.90;5.00;;;;;;;19.59;66.45;99050.30;108187;1305;22263;-43
2023/06/09 00:58:50;;;;;;;11.80;5.40;;;;;;;19.57;66.14;99047.90;108205;1305;22388;-43
2023/06/09 01:01:15;;;;;;;8.70;5.10;;;;;;;19.55;66.12;99047.02;108195;1305;22913;-43
2023/06/09 01:03:41;;;;;;;7.70;4.90;;;;;;;19.53;65.87;99045.28;108174;1305;22441;-42
2023/06/09 01:06:32;;;;;;;9.20;5.10;;;;;;;19.52;66.17;99040.95;108171;1305;22232;-42
2023/06/09 01:09:05;;;;;;;7.10;5.20;;;;;;;19.51;66.85;99042.27;108202;1305;22211;-43
2023/06/09 01:11:41;;;;;;;6.10;5.10;;;;;;;19.51;66.79;99041.68;108210;1305;22461;-43
2023/06/09 01:14:29;;;;;;;5.60;5.00;;;;;;;19.52;66.53;99036.13;108189;1305;22386;-45
2023/06/09 01:17:24;;;;;;;5.20;4.70;;;;;;;19.49;66.65;99033.94;108204;1305;22958;-41
2023/06/09 01:19:57;;;;;;;7.60;5.40;;;;;;;19.46;67.22;99028.90;108136;1305;23264;-43
2023/06/09 01:22:37;;;;;;;5.40;4.90;;;;;;;19.43;67.56;99029.34;108167;1305;22220;-41
2023/06/09 01:25:10;;;;;;;7.90;5.10;;;;;;;19.42;67.48;99028.26;108178;1305;22366;-41
2023/06/09 01:27:39;;;;;;;5.30;4.70;;;;;;;19.41;67.18;99023.54;107948;1305;23101;-41
2023/06/09 01:30:06;;;;;;;7.10;5.10;;;;;;;19.38;68.26;99023.41;108187;1305;22220;-41
2023/06/09 01:32:32;;;;;;;9.20;5.10;;;;;;;19.37;67.60;99023.47;108182;1305;23111;-42
2023/06/09 01:34:58;;;;;;;6.10;4.80;;;;;;;19.34;67.88;99023.42;108170;1306;23200;-42
2023/06/09 01:37:24;;;;;;;9.40;5.40;;;;;;;19.30;68.45;99028.08;108188;1305;22435;-43
2023/06/09 01:39:50;;;;;;;12.70;5.20;;;;;;;19.28;68.61;99026.72;108181;1305;22490;-40
2023/06/09 01:42:15;;;;;;;8.30;5.00;;;;;;;19.28;68.91;99025.31;108175;1305;23035;-43
2023/06/09 01:44:41;;;;;;;6.90;5.30;;;;;;;19.28;67.97;99028.13;108167;1305;22538;-42
2023/06/09 01:47:06;;;;;;;7.80;5.20;;;;;;;19.26;68.58;99027.23;108141;1305;22228;-41
2023/06/09 01:49:44;;;;;;;7.80;5.20;;;;;;;19.25;68.72;99026.81;108160;1306;22230;-43
2023/06/09 01:52:20;;;;;;;10.50;5.40;;;;;;;19.24;69.38;99028.50;108181;1305;22305;-41
2023/06/09 01:54:57;;;;;;;11.70;5.60;;;;;;;19.26;68.71;99030.80;108184;1305;22191;-41
2023/06/09 01:57:39;;;;;;;;;;;;;;;19.26;68.21;99027.95;108202;1305;23198;-43
2023/06/09 02:00:07;;;;;;;7.80;5.20;;;;;;;19.24;68.33;99026.87;108165;1305;22233;-42
2023/06/09 02:02:34;;;;;;;9.70;5.10;;;;;;;19.24;68.26;99024.46;108201;1305;22976;-43
2023/06/09 02:05:04;;;;;;;8.20;4.80;;;;;;;19.26;68.88;99020.85;108200;1305;22404;-41
2023/06/09 02:07:30;;;;;;;7.20;4.90;;;;;;;19.27;68.53;99019.50;108157;1305;23145;-41
2023/06/09 02:09:56;;;;;;;11.10;5.30;;;;;;;19.27;68.72;99017.18;108189;1306;22240;-40
2023/06/09 02:12:22;;;;;;;7.70;5.20;;;;;;;19.27;68.87;99017.38;108178;1306;22368;-43
2023/06/09 02:14:47;;;;;;;10.20;5.20;;;;;;;19.25;69.08;99020.24;108148;1305;22449;-42
2023/06/09 02:17:12;;;;;;;10.70;5.90;;;;;;;19.24;69.02;99022.13;108172;1305;22221;-41
2023/06/09 02:19:38;;;;;;;5.80;5.20;;;;;;;19.24;68.58;99018.41;108154;1306;22234;-41
2023/06/09 02:22:05;;;;;;;9.30;5.30;;;;;;;19.23;68.74;99017.27;108172;1305;23003;-41
2023/06/09 02:24:31;;;;;;;10.80;5.00;;;;;;;19.21;69.05;99017.98;108193;1305;22218;-41
2023/06/09 02:26:57;;;;;;;9.70;5.50;;;;;;;19.19;68.46;99017.93;108181;1305;22362;-41
2023/06/09 02:29:26;;;;;;;8.10;5.50;;;;;;;19.16;68.59;99016.20;108157;1305;23134;-41
2023/06/09 02:31:53;;;;;;;12.20;5.80;;;;;;;19.14;69.40;99017.50;108169;1305;23023;-42
2023/06/09 02:34:19;;;;;;;8.30;5.70;;;;;;;19.14;69.27;99022.00;108151;1306;23027;-44
2023/06/09 02:36:45;;;;;;;8.30;6.10;;;;;;;19.14;68.59;99019.33;108153;1305;22218;-41
2023/06/09 02:39:10;;;;;;;10.00;6.20;;;;;;;19.12;69.30;99023.27;108165;1305;22395;-44
2023/06/09 02:43:54;;;;;;;8.20;6.10;;;;;;;19.15;68.82;99025.21;106936;1304;558700;-42
2023/06/09 02:46:22;;;;;;;12.20;6.10;;;;;;;19.13;68.76;99023.28;107287;1313;23351;-43
2023/06/09 02:48:47;;;;;;;;;;;;;;;19.11;69.06;99023.63;107323;1313;22524;-40
2023/06/09 02:51:13;;;;;;;7.80;6.00;;;;;;;19.09;69.19;99024.53;107296;1313;23006;-43
2023/06/09 02:53:38;;;;;;;15.80;7.00;;;;;;;19.07;69.71;99021.91;107310;1313;22253;-42
2023/06/09 02:56:04;;;;;;;7.70;6.50;;;;;;;19.07;68.98;99023.20;107185;1308;153381;-42
2023/06/09 02:58:29;;;;;;;10.60;6.00;;;;;;;19.07;69.10;99026.04;107759;1308;22258;-43
2023/06/09 03:00:55;;;;;;;15.20;6.50;;;;;;;19.06;69.44;99027.14;107761;1308;22546;-40
2023/06/09 03:03:20;;;;;;;8.10;6.50;;;;;;;19.06;68.69;99026.48;107723;1308;22446;-41
2023/06/09 03:05:46;;;;;;;8.00;6.10;;;;;;;19.04;69.53;99030.05;107762;1308;22255;-41
2023/06/09 03:08:11;;;;;;;10.30;6.00;;;;;;;19.02;69.52;99025.96;107749;1308;22286;-40
2023/06/09 03:10:37;;;;;;;7.90;5.90;;;;;;;18.99;69.32;99027.45;107743;1308;22259;-43
2023/06/09 03:13:02;;;;;;;9.80;5.60;;;;;;;18.97;69.63;99034.05;107780;1308;23232;-41
2023/06/09 03:15:28;;;;;;;10.20;5.50;;;;;;;18.98;69.64;99034.67;107755;1308;22566;-41
2023/06/09 03:17:53;;;;;;;8.00;5.00;;;;;;;19.01;69.66;99031.52;107754;1308;22433;-41
2023/06/09 03:20:19;;;;;;;11.10;5.50;;;;;;;19.05;70.13;99030.50;107768;1289;22442;-42
2023/06/09 03:22:45;;;;;;;9.20;5.30;;;;;;;19.06;70.38;99031.92;107753;1308;22300;-41
2023/06/09 03:25:11;;;;;;;8.30;5.60;;;;;;;19.11;69.85;99031.80;107746;1308;22258;-41
2023/06/09 03:27:36;;;;;;;10.40;5.10;;;;;;;19.15;69.42;99035.37;107751;1308;22252;-41
2023/06/09 03:30:02;;;;;;;8.90;4.90;;;;;;;19.18;69.46;99040.58;107742;1308;23125;-41
2023/06/09 03:32:27;;;;;;;6.30;4.70;;;;;;;19.22;69.18;99041.52;107790;1308;23024;-41
2023/06/09 03:34:52;;;;;;;9.20;5.10;;;;;;;19.23;69.36;99040.65;107744;1308;22427;-43
2023/06/09 03:37:18;;;;;;;8.10;5.20;;;;;;;19.25;69.61;99040.90;107752;1308;22580;-43
2023/06/09 03:39:43;;;;;;;8.40;5.10;;;;;;;19.27;68.93;99043.55;107745;1308;22456;-40
2023/06/09 03:42:08;;;;;;;8.40;5.30;;;;;;;19.29;69.06;99049.05;107759;1309;22236;-41
2023/06/09 03:44:34;;;;;;;6.80;5.30;;;;;;;19.30;68.97;99055.43;107740;1309;23229;-41
2023/06/09 03:46:59;;;;;;;10.50;5.30;;;;;;;19.34;68.85;99055.11;107742;1308;22254;-42
2023/06/09 03:49:24;;;;;;;5.50;5.00;;;;;;;19.35;68.68;99058.33;107732;1308;22514;-42
2023/06/09 03:51:49;;;;;;;7.50;5.20;;;;;;;19.37;68.41;99059.23;107749;1308;22996;-42
2023/06/09 03:54:15;;;;;;;9.40;5.20;;;;;;;19.38;68.48;99064.48;107739;1309;22297;-42
2023/06/09 03:56:40;;;;;;;9.80;5.20;;;;;;;19.38;68.75;99064.50;107752;1309;23061;-42
2023/06/09 03:59:05;;;;;;;16.90;5.00;;;;;;;19.39;68.15;99064.52;107745;1309;22988;-43
2023/06/09 04:01:30;;;;;;;9.20;5.00;;;;;;;19.40;68.03;99062.38;107722;1309;22249;-42
2023/06/09 04:03:56;;;;;;;11.30;5.00;;;;;;;19.41;68.06;99062.92;107728;1308;23780;-43
2023/06/09 04:06:21;;;;;;;9.90;5.40;;;;;;;19.43;68.21;99062.54;107749;1309;22437;-44
2023/06/09 04:08:46;;;;;;;12.90;4.50;;;;;;;19.45;67.54;99066.09;107768;1309;22935;-40
2023/06/09 04:11:13;;;;;;;7.80;4.90;;;;;;;19.43;67.61;99066.52;107704;1309;22217;-40
2023/06/09 04:13:39;;;;;;;7.10;5.20;;;;;;;19.44;67.74;99064.84;107747;1309;22210;-45
2023/06/09 04:16:05;;;;;;;11.20;5.50;;;;;;;19.45;68.42;99064.92;107736;1309;22550;-43
2023/06/09 04:18:31;;;;;;;11.60;5.50;;;;;;;19.46;68.12;99064.60;107747;1309;23018;-42
2023/06/09 04:20:56;;;;;;;5.90;5.00;;;;;;;19.48;67.59;99064.36;107728;1309;23282;-43
2023/06/09 04:23:21;;;;;;;7.00;5.00;;;;;;;19.50;67.57;99061.88;107720;1308;22363;-41
2023/06/09 04:25:47;;;;;;;6.50;5.20;;;;;;;19.51;67.44;99063.37;107722;1309;22422;-42
2023/06/09 04:28:12;;;;;;;6.50;5.10;;;;;;;19.54;67.71;99066.54;107685;1309;22242;-42
2023/06/09 04:30:38;;;;;;;11.00;5.90;;;;;;;19.54;67.17;99064.88;107726;1308;22336;-41
2023/06/09 04:33:03;;;;;;;10.80;6.30;;;;;;;19.54;68.04;99064.15;107756;1308;22263;-44
2023/06/09 04:35:30;;;;;;;11.10;6.90;;;;;;;19.56;67.83;99063.83;107732;1308;22497;-44
2023/06/09 04:37:56;;;;;;;9.30;6.60;;;;;;;19.58;67.98;99064.72;107744;1309;22469;-41
2023/06/09 04:40:22;;;;;;;16.60;6.70;;;;;;;19.60;67.69;99063.10;107760;1308;22429;-41
2023/06/09 04:42:56;;;;;;;8.90;6.60;;;;;;;19.62;67.31;99065.59;107752;1308;22216;-44
2023/06/09 04:45:27;;;;;;;11.10;6.40;;;;;;;19.64;67.39;99062.73;107738;1308;22520;-42
2023/06/09 04:47:59;;;;;;;9.60;5.60;;;;;;;19.67;67.31;99062.26;107734;1308;22877;-41
2023/06/09 04:50:25;;;;;;;8.70;5.60;;;;;;;19.71;67.04;99059.20;107534;1309;22249;-42
2023/06/09 04:52:51;;;;;;;6.00;4.90;;;;;;;19.73;67.06;99062.05;107740;1309;22704;-41
2023/06/09 04:55:16;;;;;;;8.00;4.00;;;;;;;19.77;66.79;99064.01;107734;1309;23100;-43
2023/06/09 04:57:43;;;;;;;5.30;4.20;;;;;;;19.81;66.97;99065.35;107746;1309;22517;-41
2023/06/09 05:00:14;;;;;;;5.30;4.40;;;;;;;19.85;66.57;99065.80;107741;1308;22725;-41
2023/06/09 05:02:39;;;;;;;6.40;4.70;;;;;;;19.89;66.84;99066.02;107747;1308;22604;-42
2023/06/09 05:05:05;;;;;;;7.10;4.50;;;;;;;19.92;66.38;99066.02;107755;1308;23356;-42
2023/06/09 05:07:30;;;;;;;7.90;4.40;;;;;;;19.94;66.50;99066.20;107746;1308;22874;-44
2023/06/09 05:09:55;;;;;;;7.10;5.00;;;;;;;19.97;66.06;99067.16;107736;1308;22297;-43
2023/06/09 05:12:20;;;;;;;7.00;5.10;;;;;;;19.98;66.11;99062.64;107746;1308;22268;-43
2023/06/09 05:14:46;;;;;;;8.70;4.70;;;;;;;20.00;66.29;99062.80;107760;1308;23838;-42
2023/06/09 05:17:11;;;;;;;6.40;4.90;;;;;;;20.02;66.35;99062.75;107755;1308;23073;-42
2023/06/09 05:19:36;;;;;;;5.50;5.00;;;;;;;20.06;66.09;99068.42;107757;1308;22247;-42
2023/06/09 05:22:02;;;;;;;8.20;5.20;;;;;;;20.10;65.81;99069.77;107743;1308;22255;-42
2023/06/09 05:24:27;;;;;;;11.50;6.10;;;;;;;20.09;65.98;99068.99;107751;1308;22360;-42
